sensor_id;sensor_type;location;lat;lon;timestamp;pressure;altitude;pressure_sealevel;temperature;humidity
69187;BME280;56301;56.864;60.554;2024-02-28T00:01:16;99930.66;;;25.89;20.99
69187;BME280;56301;56.864;60.554;2024-02-28T00:03:39;99921.66;;;25.89;20.90
69187;BME280;56301;56.864;60.554;2024-02-28T00:06:01;99928.94;;;25.88;21.43
69187;BME280;56301;56.864;60.554;2024-02-28T00:08:24;99917.25;;;25.88;20.80
69187;BME280;56301;56.864;60.554;2024-02-28T00:10:46;99917.94;;;25.90;21.16
69187;BME280;56301;56.864;60.554;2024-02-28T00:13:09;99918.94;;;25.89;21.41
69187;BME280;56301;56.864;60.554;2024-02-28T00:15:31;99907.25;;;25.88;21.53
69187;BME280;56301;56.864;60.554;2024-02-28T00:17:54;99902.66;;;25.89;21.19
69187;BME280;56301;56.864;60.554;2024-02-28T00:20:16;99902.66;;;25.89;20.78
69187;BME280;56301;56.864;60.554;2024-02-28T00:22:39;99899.97;;;25.89;20.86
69187;BME280;56301;56.864;60.554;2024-02-28T00:25:01;99900.97;;;25.88;20.83
69187;BME280;56301;56.864;60.554;2024-02-28T00:27:24;99899.28;;;25.87;20.79
69187;BME280;56301;56.864;60.554;2024-02-28T00:29:46;99906.41;;;25.88;20.99
69187;BME280;56301;56.864;60.554;2024-02-28T00:32:08;99905.25;;;25.90;20.80
69187;BME280;56301;56.864;60.554;2024-02-28T00:34:31;99910.66;;;25.90;21.23
69187;BME280;56301;56.864;60.554;2024-02-28T00:36:53;99900.97;;;25.88;21.56
69187;BME280;56301;56.864;60.554;2024-02-28T00:39:16;99907.94;;;25.90;21.11
69187;BME280;56301;56.864;60.554;2024-02-28T00:41:38;99894.53;;;25.89;21.55
69187;BME280;56301;56.864;60.554;2024-02-28T00:44:02;99900.13;;;25.87;21.17
69187;BME280;56301;56.864;60.554;2024-02-28T00:46:24;99893.03;;;25.86;21.33
69187;BME280;56301;56.864;60.554;2024-02-28T00:48:47;99893.03;;;25.86;20.94
69187;BME280;56301;56.864;60.554;2024-02-28T00:51:09;99888.44;;;25.87;20.30
69187;BME280;56301;56.864;60.554;2024-02-28T00:53:31;99890.47;;;25.85;21.43
69187;BME280;56301;56.864;60.554;2024-02-28T00:55:54;99896.56;;;25.87;20.93
69187;BME280;56301;56.864;60.554;2024-02-28T00:58:16;99905.38;;;25.89;21.04
69187;BME280;56301;56.864;60.554;2024-02-28T01:00:39;99896.56;;;25.87;20.56
69187;BME280;56301;56.864;60.554;2024-02-28T01:03:01;99888.41;;;25.79;21.66
69187;BME280;56301;56.864;60.554;2024-02-28T01:05:24;99897.59;;;25.86;20.76
69187;BME280;56301;56.864;60.554;2024-02-28T01:07:46;99899.28;;;25.87;20.80
69187;BME280;56301;56.864;60.554;2024-02-28T01:10:09;99898.44;;;25.86;21.01
69187;BME280;56301;56.864;60.554;2024-02-28T01:12:31;99897.59;;;25.86;20.60
69187;BME280;56301;56.864;60.554;2024-02-28T01:14:54;99895.88;;;25.85;20.28
69187;BME280;56301;56.864;60.554;2024-02-28T01:17:16;99893.16;;;25.85;20.86
69187;BME280;56301;56.864;60.554;2024-02-28T01:19:39;99900.31;;;25.86;21.91
69187;BME280;56301;56.864;60.554;2024-02-28T01:22:01;99901.81;;;25.88;20.89
69187;BME280;56301;56.864;60.554;2024-02-28T01:24:24;99899.81;;;25.90;21.12
69187;BME280;56301;56.864;60.554;2024-02-28T01:26:46;99904.22;;;25.91;20.71
69187;BME280;56301;56.864;60.554;2024-02-28T01:29:09;99909.13;;;25.88;21.85
69187;BME280;56301;56.864;60.554;2024-02-28T01:31:32;99902.88;;;25.96;21.21
69187;BME280;56301;56.864;60.554;2024-02-28T01:33:54;99897.75;;;25.92;21.54
69187;BME280;56301;56.864;60.554;2024-02-28T01:36:17;99905.75;;;25.94;21.60
69187;BME280;56301;56.864;60.554;2024-02-28T01:38:39;99897.75;;;25.92;21.38
69187;BME280;56301;56.864;60.554;2024-02-28T01:41:02;99915.75;;;25.93;21.16
69187;BME280;56301;56.864;60.554;2024-02-28T01:43:24;99899.63;;;25.92;21.27
69187;BME280;56301;56.864;60.554;2024-02-28T01:45:47;99895.06;;;25.92;21.64
69187;BME280;56301;56.864;60.554;2024-02-28T01:48:10;99895.94;;;25.93;20.87
69187;BME280;56301;56.864;60.554;2024-02-28T01:50:33;99892.34;;;25.92;21.08
69187;BME280;56301;56.864;60.554;2024-02-28T01:52:55;99885.94;;;25.93;20.79
69187;BME280;56301;56.864;60.554;2024-02-28T01:55:18;99892.03;;;25.96;20.98
69187;BME280;56301;56.864;60.554;2024-02-28T01:57:40;99887.97;;;26.00;20.81
69187;BME280;56301;56.864;60.554;2024-02-28T02:00:04;99896.28;;;25.98;21.35
69187;BME280;56301;56.864;60.554;2024-02-28T02:02:27;99890.00;;;25.98;20.82
69187;BME280;56301;56.864;60.554;2024-02-28T02:04:49;99892.41;;;26.01;21.22
69187;BME280;56301;56.864;60.554;2024-02-28T02:07:12;99890.53;;;26.01;21.08
69187;BME280;56301;56.864;60.554;2024-02-28T02:09:34;99893.25;;;26.01;20.81
69187;BME280;56301;56.864;60.554;2024-02-28T02:11:56;99883.41;;;26.00;21.25
69187;BME280;56301;56.864;60.554;2024-02-28T02:14:19;99885.94;;;26.02;20.82
69187;BME280;56301;56.864;60.554;2024-02-28T02:16:41;99877.50;;;26.05;20.62
69187;BME280;56301;56.864;60.554;2024-02-28T02:19:04;99886.78;;;26.02;20.53
69187;BME280;56301;56.864;60.554;2024-02-28T02:21:30;99883.06;;;26.03;20.77
69187;BME280;56301;56.864;60.554;2024-02-28T02:23:54;99886.47;;;26.05;20.32
69187;BME280;56301;56.864;60.554;2024-02-28T02:26:17;99883.06;;;26.03;20.87
69187;BME280;56301;56.864;60.554;2024-02-28T02:28:39;99875.09;;;26.02;21.35
69187;BME280;56301;56.864;60.554;2024-02-28T02:31:02;99891.19;;;26.03;20.97
69187;BME280;56301;56.864;60.554;2024-02-28T02:33:24;99893.91;;;26.03;20.40
69187;BME280;56301;56.864;60.554;2024-02-28T02:35:46;99888.34;;;26.05;21.31
69187;BME280;56301;56.864;60.554;2024-02-28T02:38:09;99884.41;;;25.99;21.17
69187;BME280;56301;56.864;60.554;2024-02-28T02:40:31;99892.53;;;25.99;20.81
69187;BME280;56301;56.864;60.554;2024-02-28T02:42:54;99892.22;;;26.02;20.77
69187;BME280;56301;56.864;60.554;2024-02-28T02:45:16;99897.44;;;25.96;20.79
69187;BME280;56301;56.864;60.554;2024-02-28T02:47:39;99897.94;;;25.83;20.26
69187;BME280;56301;56.864;60.554;2024-02-28T02:50:01;99909.16;;;25.70;20.45
69187;BME280;56301;56.864;60.554;2024-02-28T02:52:23;99901.19;;;25.60;21.24
69187;BME280;56301;56.864;60.554;2024-02-28T02:54:46;99906.53;;;25.52;21.69
69187;BME280;56301;56.864;60.554;2024-02-28T02:57:08;99911.59;;;25.47;21.40
69187;BME280;56301;56.864;60.554;2024-02-28T02:59:31;99901.94;;;25.44;21.76
69187;BME280;56301;56.864;60.554;2024-02-28T03:01:53;99907.53;;;25.43;21.44
69187;BME280;56301;56.864;60.554;2024-02-28T03:04:16;99910.38;;;25.41;22.07
69187;BME280;56301;56.864;60.554;2024-02-28T03:06:38;99915.13;;;25.39;21.81
69187;BME280;56301;56.864;60.554;2024-02-28T03:09:01;99913.56;;;25.37;21.53
69187;BME280;56301;56.864;60.554;2024-02-28T03:11:23;99903.91;;;25.34;21.44
69187;BME280;56301;56.864;60.554;2024-02-28T03:13:46;99915.22;;;25.30;21.64
69187;BME280;56301;56.864;60.554;2024-02-28T03:16:08;99905.53;;;25.27;21.58
69187;BME280;56301;56.864;60.554;2024-02-28T03:18:31;99909.44;;;25.25;21.89
69187;BME280;56301;56.864;60.554;2024-02-28T03:20:53;99910.97;;;25.27;21.96
69187;BME280;56301;56.864;60.554;2024-02-28T03:23:16;99918.09;;;25.28;21.71
69187;BME280;56301;56.864;60.554;2024-02-28T03:25:38;99909.28;;;25.26;22.31
69187;BME280;56301;56.864;60.554;2024-02-28T03:28:00;99907.72;;;25.24;22.13
69187;BME280;56301;56.864;60.554;2024-02-28T03:30:23;99894.66;;;25.19;22.19
69187;BME280;56301;56.864;60.554;2024-02-28T03:32:45;99900.63;;;25.23;23.13
69187;BME280;56301;56.864;60.554;2024-02-28T03:35:08;99899.81;;;25.30;21.98
69187;BME280;56301;56.864;60.554;2024-02-28T03:37:31;99896.97;;;25.32;22.14
69187;BME280;56301;56.864;60.554;2024-02-28T03:39:53;99911.50;;;25.31;22.10
69187;BME280;56301;56.864;60.554;2024-02-28T03:42:15;99919.44;;;25.24;22.60
69187;BME280;56301;56.864;60.554;2024-02-28T03:44:38;99914.03;;;25.24;22.70
69187;BME280;56301;56.864;60.554;2024-02-28T03:47:00;99909.00;;;25.11;23.63
69187;BME280;56301;56.864;60.554;2024-02-28T03:49:23;99921.84;;;25.09;23.33
69187;BME280;56301;56.864;60.554;2024-02-28T03:51:45;99916.72;;;25.06;22.88
69187;BME280;56301;56.864;60.554;2024-02-28T03:54:08;99929.56;;;25.04;22.60
69187;BME280;56301;56.864;60.554;2024-02-28T03:56:31;99921.75;;;25.01;22.08
69187;BME280;56301;56.864;60.554;2024-02-28T03:58:53;99887.53;;;24.92;21.94
69187;BME280;56301;56.864;60.554;2024-02-28T04:01:16;99904.13;;;24.97;21.80
69187;BME280;56301;56.864;60.554;2024-02-28T04:03:38;99905.16;;;24.96;21.79
69187;BME280;56301;56.864;60.554;2024-02-28T04:06:01;99908.88;;;24.95;21.60
69187;BME280;56301;56.864;60.554;2024-02-28T04:08:23;99900.75;;;24.95;21.56
69187;BME280;56301;56.864;60.554;2024-02-28T04:10:46;99898.03;;;24.95;21.61
69187;BME280;56301;56.864;60.554;2024-02-28T04:13:08;99890.06;;;24.93;21.45
69187;BME280;56301;56.864;60.554;2024-02-28T04:15:30;99893.78;;;24.92;21.41
69187;BME280;56301;56.864;60.554;2024-02-28T04:17:53;99900.03;;;24.93;21.30
69187;BME280;56301;56.864;60.554;2024-02-28T04:20:15;99900.03;;;24.93;21.16
69187;BME280;56301;56.864;60.554;2024-02-28T04:22:38;99898.34;;;24.92;20.97
69187;BME280;56301;56.864;60.554;2024-02-28T04:25:01;99896.63;;;24.91;21.21
69187;BME280;56301;56.864;60.554;2024-02-28T04:27:23;99886.81;;;24.90;20.69
69187;BME280;56301;56.864;60.554;2024-02-28T04:29:46;99884.94;;;24.90;20.95
69187;BME280;56301;56.864;60.554;2024-02-28T04:32:08;99880.56;;;24.89;20.38
69187;BME280;56301;56.864;60.554;2024-02-28T04:34:30;99885.13;;;24.89;20.58
69187;BME280;56301;56.864;60.554;2024-02-28T04:36:53;99882.41;;;24.89;21.03
69187;BME280;56301;56.864;60.554;2024-02-28T04:39:15;99883.44;;;24.88;20.88
69187;BME280;56301;56.864;60.554;2024-02-28T04:41:38;99881.56;;;24.88;20.40
69187;BME280;56301;56.864;60.554;2024-02-28T04:44:00;99874.28;;;24.89;20.73
69187;BME280;56301;56.864;60.554;2024-02-28T04:46:23;99869.19;;;24.86;20.41
69187;BME280;56301;56.864;60.554;2024-02-28T04:48:45;99890.84;;;24.86;20.62
69187;BME280;56301;56.864;60.554;2024-02-28T04:51:08;99889.81;;;24.87;20.78
69187;BME280;56301;56.864;60.554;2024-02-28T04:53:30;99894.41;;;24.86;20.04
69187;BME280;56301;56.864;60.554;2024-02-28T04:55:53;99893.25;;;24.89;20.44
69187;BME280;56301;56.864;60.554;2024-02-28T04:58:15;99886.81;;;24.90;20.78
69187;BME280;56301;56.864;60.554;2024-02-28T05:00:38;99886.28;;;24.86;20.80
69187;BME280;56301;56.864;60.554;2024-02-28T05:03:00;99893.56;;;24.86;20.09
69187;BME280;56301;56.864;60.554;2024-02-28T05:05:23;99894.25;;;24.88;20.64
69187;BME280;56301;56.864;60.554;2024-02-28T05:07:45;99881.56;;;24.88;20.44
69187;BME280;56301;56.864;60.554;2024-02-28T05:10:08;99868.16;;;24.87;20.50
69187;BME280;56301;56.864;60.554;2024-02-28T05:12:30;99877.13;;;24.87;20.51
69187;BME280;56301;56.864;60.554;2024-02-28T05:14:53;99881.25;;;24.91;20.55
69187;BME280;56301;56.864;60.554;2024-02-28T05:17:15;99885.78;;;24.91;20.39
69187;BME280;56301;56.864;60.554;2024-02-28T05:19:38;99887.66;;;24.90;20.73
69187;BME280;56301;56.864;60.554;2024-02-28T05:22:01;99886.81;;;24.90;20.01
69187;BME280;56301;56.864;60.554;2024-02-28T05:24:24;99877.69;;;24.91;19.94
69187;BME280;56301;56.864;60.554;2024-02-28T05:26:46;99865.16;;;24.90;20.23
69187;BME280;56301;56.864;60.554;2024-02-28T05:29:08;99875.31;;;24.88;20.49
69187;BME280;56301;56.864;60.554;2024-02-28T05:31:31;99866.31;;;24.87;20.59
69187;BME280;56301;56.864;60.554;2024-02-28T05:33:54;99870.88;;;24.87;20.45
69187;BME280;56301;56.864;60.554;2024-02-28T05:36:17;99877.31;;;24.86;20.49
69187;BME280;56301;56.864;60.554;2024-02-28T05:38:40;99861.38;;;24.83;20.08
69187;BME280;56301;56.864;60.554;2024-02-28T05:41:02;99877.63;;;24.83;20.54
69187;BME280;56301;56.864;60.554;2024-02-28T05:43:25;99868.81;;;24.81;20.00
69187;BME280;56301;56.864;60.554;2024-02-28T05:45:47;99869.81;;;24.80;20.31
69187;BME280;56301;56.864;60.554;2024-02-28T05:48:10;99870.81;;;24.79;20.35
69187;BME280;56301;56.864;60.554;2024-02-28T05:50:32;99875.22;;;24.80;20.20
69187;BME280;56301;56.864;60.554;2024-02-28T05:52:55;99872.53;;;24.80;20.25
69187;BME280;56301;56.864;60.554;2024-02-28T05:55:17;99877.09;;;24.79;19.79
69187;BME280;56301;56.864;60.554;2024-02-28T05:57:40;99880.50;;;24.81;20.44
69187;BME280;56301;56.864;60.554;2024-02-28T06:00:03;99875.09;;;24.81;20.11
69187;BME280;56301;56.864;60.554;2024-02-28T06:02:33;99872.91;;;24.85;20.43
69187;BME280;56301;56.864;60.554;2024-02-28T06:04:56;99871.91;;;24.86;20.14
69187;BME280;56301;56.864;60.554;2024-02-28T06:07:18;99868.16;;;24.87;19.71
69187;BME280;56301;56.864;60.554;2024-02-28T06:09:41;99870.75;;;24.88;20.10
69187;BME280;56301;56.864;60.554;2024-02-28T06:12:03;99872.13;;;24.92;19.81
69187;BME280;56301;56.864;60.554;2024-02-28T06:14:26;99879.75;;;24.97;19.56
69187;BME280;56301;56.864;60.554;2024-02-28T06:16:48;99873.84;;;25.02;20.02
69187;BME280;56301;56.864;60.554;2024-02-28T06:19:11;99877.09;;;25.05;20.26
69187;BME280;56301;56.864;60.554;2024-02-28T06:21:33;99874.25;;;25.07;20.01
69187;BME280;56301;56.864;60.554;2024-02-28T06:23:56;99874.81;;;25.10;20.42
69187;BME280;56301;56.864;60.554;2024-02-28T06:26:18;99871.94;;;25.12;20.35
69187;BME280;56301;56.864;60.554;2024-02-28T06:28:40;99878.19;;;25.12;20.41
69187;BME280;56301;56.864;60.554;2024-02-28T06:31:03;99863.34;;;25.16;20.38
69187;BME280;56301;56.864;60.554;2024-02-28T06:33:25;99873.47;;;25.14;20.10
69187;BME280;56301;56.864;60.554;2024-02-28T06:35:48;99877.88;;;25.15;20.46
69187;BME280;56301;56.864;60.554;2024-02-28T06:38:10;99872.84;;;25.20;20.53
69187;BME280;56301;56.864;60.554;2024-02-28T06:40:33;99873.69;;;25.21;20.44
69187;BME280;56301;56.864;60.554;2024-02-28T06:42:55;99866.41;;;25.21;20.01
69187;BME280;56301;56.864;60.554;2024-02-28T06:45:18;99867.97;;;25.24;20.57
69187;BME280;56301;56.864;60.554;2024-02-28T06:47:41;99864.25;;;25.25;20.66
69187;BME280;56301;56.864;60.554;2024-02-28T06:50:03;99862.38;;;25.26;20.62
69187;BME280;56301;56.864;60.554;2024-02-28T06:52:26;99873.91;;;25.28;20.26
69187;BME280;56301;56.864;60.554;2024-02-28T06:54:48;99865.44;;;25.31;20.52
69187;BME280;56301;56.864;60.554;2024-02-28T06:57:11;99869.16;;;25.30;20.75
69187;BME280;56301;56.864;60.554;2024-02-28T06:59:33;99870.84;;;25.31;20.12
69187;BME280;56301;56.864;60.554;2024-02-28T07:01:56;99868.31;;;25.29;20.53
69187;BME280;56301;56.864;60.554;2024-02-28T07:04:18;99871.88;;;25.30;20.16
69187;BME280;56301;56.864;60.554;2024-02-28T07:06:41;99863.94;;;25.28;20.41
69187;BME280;56301;56.864;60.554;2024-02-28T07:09:03;99868.31;;;25.29;20.18
69187;BME280;56301;56.864;60.554;2024-02-28T07:11:26;99872.91;;;25.29;20.13
69187;BME280;56301;56.864;60.554;2024-02-28T07:13:48;99867.78;;;25.26;19.90
69187;BME280;56301;56.864;60.554;2024-02-28T07:16:11;99866.94;;;25.25;20.68
69187;BME280;56301;56.864;60.554;2024-02-28T07:18:33;99864.38;;;25.24;20.34
69187;BME280;56301;56.864;60.554;2024-02-28T07:20:55;99858.97;;;25.24;20.25
69187;BME280;56301;56.864;60.554;2024-02-28T07:23:18;99866.25;;;25.23;20.68
69187;BME280;56301;56.864;60.554;2024-02-28T07:25:40;99864.38;;;25.24;20.24
69187;BME280;56301;56.864;60.554;2024-02-28T07:28:03;99869.47;;;25.27;20.47
69187;BME280;56301;56.864;60.554;2024-02-28T07:30:25;99870.19;;;25.29;20.70
69187;BME280;56301;56.864;60.554;2024-02-28T07:32:48;99864.06;;;25.27;20.29
69187;BME280;56301;56.864;60.554;2024-02-28T07:35:12;99867.09;;;25.24;20.28
69187;BME280;56301;56.864;60.554;2024-02-28T07:37:34;99874.06;;;25.26;20.12
69187;BME280;56301;56.864;60.554;2024-02-28T07:39:57;99865.09;;;25.26;20.10
69187;BME280;56301;56.864;60.554;2024-02-28T07:42:19;99870.50;;;25.26;20.26
69187;BME280;56301;56.864;60.554;2024-02-28T07:44:42;99873.22;;;25.26;20.39
69187;BME280;56301;56.864;60.554;2024-02-28T07:47:05;99876.94;;;25.25;19.99
69187;BME280;56301;56.864;60.554;2024-02-28T07:49:28;99868.63;;;25.26;19.99
69187;BME280;56301;56.864;60.554;2024-02-28T07:51:51;99873.22;;;25.26;20.44
69187;BME280;56301;56.864;60.554;2024-02-28T07:54:13;99866.09;;;25.25;20.72
69187;BME280;56301;56.864;60.554;2024-02-28T07:56:36;99864.38;;;25.24;20.41
69187;BME280;56301;56.864;60.554;2024-02-28T07:58:58;99876.09;;;25.24;20.22
69187;BME280;56301;56.864;60.554;2024-02-28T08:01:21;99875.22;;;25.24;20.66
69187;BME280;56301;56.864;60.554;2024-02-28T08:03:43;99870.81;;;25.23;19.85
69187;BME280;56301;56.864;60.554;2024-02-28T08:06:06;99871.00;;;25.21;20.48
69187;BME280;56301;56.864;60.554;2024-02-28T08:08:28;99869.28;;;25.20;20.44
69187;BME280;56301;56.864;60.554;2024-02-28T08:10:51;99873.00;;;25.19;20.04
69187;BME280;56301;56.864;60.554;2024-02-28T08:13:13;99859.63;;;25.17;20.20
69187;BME280;56301;56.864;60.554;2024-02-28T08:15:36;99859.47;;;25.19;19.92
69187;BME280;56301;56.864;60.554;2024-02-28T08:17:58;99863.00;;;25.19;19.86
69187;BME280;56301;56.864;60.554;2024-02-28T08:20:21;99833.19;;;25.11;20.11
69187;BME280;56301;56.864;60.554;2024-02-28T08:22:43;99832.88;;;25.14;20.36
69187;BME280;56301;56.864;60.554;2024-02-28T08:25:06;99854.25;;;25.26;20.33
69187;BME280;56301;56.864;60.554;2024-02-28T08:27:28;99843.41;;;25.26;19.98
69187;BME280;56301;56.864;60.554;2024-02-28T08:29:51;99838.00;;;25.26;20.57
69187;BME280;56301;56.864;60.554;2024-02-28T08:32:13;99839.03;;;25.25;20.39
69187;BME280;56301;56.864;60.554;2024-02-28T08:34:36;99846.97;;;25.26;19.71
69187;BME280;56301;56.864;60.554;2024-02-28T08:36:58;99846.97;;;25.26;19.74
69187;BME280;56301;56.864;60.554;2024-02-28T08:39:21;99838.00;;;25.26;20.22
69187;BME280;56301;56.864;60.554;2024-02-28T08:41:43;99842.56;;;25.25;19.93
69187;BME280;56301;56.864;60.554;2024-02-28T08:44:05;99841.56;;;25.26;19.94
69187;BME280;56301;56.864;60.554;2024-02-28T08:46:28;99841.03;;;25.23;20.47
69187;BME280;56301;56.864;60.554;2024-02-28T08:48:50;99838.63;;;25.19;20.15
69187;BME280;56301;56.864;60.554;2024-02-28T08:51:13;99845.38;;;25.15;20.54
69187;BME280;56301;56.864;60.554;2024-02-28T08:53:36;99839.13;;;25.15;20.35
69187;BME280;56301;56.864;60.554;2024-02-28T08:55:58;99842.00;;;25.13;20.39
69187;BME280;56301;56.864;60.554;2024-02-28T08:58:21;99847.41;;;25.13;20.58
69187;BME280;56301;56.864;60.554;2024-02-28T09:00:43;99841.31;;;25.11;19.86
69187;BME280;56301;56.864;60.554;2024-02-28T09:03:06;99843.31;;;25.09;20.39
69187;BME280;56301;56.864;60.554;2024-02-28T09:05:28;99839.63;;;25.10;20.03
69187;BME280;56301;56.864;60.554;2024-02-28T09:07:51;99832.47;;;25.09;20.41
69187;BME280;56301;56.864;60.554;2024-02-28T09:10:13;99841.44;;;25.10;19.66
69187;BME280;56301;56.864;60.554;2024-02-28T09:12:36;99841.59;;;25.08;20.37
69187;BME280;56301;56.864;60.554;2024-02-28T09:14:58;99839.72;;;25.09;20.18
69187;BME280;56301;56.864;60.554;2024-02-28T09:17:21;99838.88;;;25.08;20.25
69187;BME280;56301;56.864;60.554;2024-02-28T09:19:43;99839.91;;;25.07;20.39
69187;BME280;56301;56.864;60.554;2024-02-28T09:22:06;99847.72;;;25.10;20.15
69187;BME280;56301;56.864;60.554;2024-02-28T09:24:28;99843.44;;;25.08;20.32
69187;BME280;56301;56.864;60.554;2024-02-28T09:26:51;99836.34;;;25.07;19.77
69187;BME280;56301;56.864;60.554;2024-02-28T09:29:13;99836.16;;;25.08;20.36
69187;BME280;56301;56.864;60.554;2024-02-28T09:31:35;99840.59;;;25.09;20.18
69187;BME280;56301;56.864;60.554;2024-02-28T09:33:58;99840.59;;;25.09;19.68
69187;BME280;56301;56.864;60.554;2024-02-28T09:36:20;99839.63;;;25.10;20.13
69187;BME280;56301;56.864;60.554;2024-02-28T09:38:43;99837.88;;;25.09;20.15
69187;BME280;56301;56.864;60.554;2024-02-28T09:41:06;99838.72;;;25.10;20.39
69187;BME280;56301;56.864;60.554;2024-02-28T09:43:29;99843.44;;;25.08;20.00
69187;BME280;56301;56.864;60.554;2024-02-28T09:45:51;99844.28;;;25.08;20.32
69187;BME280;56301;56.864;60.554;2024-02-28T09:48:16;99842.59;;;25.07;20.51
69187;BME280;56301;56.864;60.554;2024-02-28T09:50:39;99837.34;;;25.06;20.45
69187;BME280;56301;56.864;60.554;2024-02-28T09:53:01;99833.78;;;25.05;20.42
69187;BME280;56301;56.864;60.554;2024-02-28T09:55:24;99834.78;;;25.04;20.16
69187;BME280;56301;56.864;60.554;2024-02-28T09:57:50;99837.81;;;25.01;20.08
69187;BME280;56301;56.864;60.554;2024-02-28T10:00:15;99842.25;;;25.02;19.90
69187;BME280;56301;56.864;60.554;2024-02-28T10:02:41;99835.94;;;25.02;20.56
69187;BME280;56301;56.864;60.554;2024-02-28T10:05:05;99835.81;;;25.03;20.36
69187;BME280;56301;56.864;60.554;2024-02-28T10:07:28;99840.53;;;25.01;20.66
69187;BME280;56301;56.864;60.554;2024-02-28T10:09:51;99836.84;;;25.02;20.51
69187;BME280;56301;56.864;60.554;2024-02-28T10:12:14;99840.53;;;25.01;20.42
69187;BME280;56301;56.864;60.554;2024-02-28T10:14:36;99835.09;;;25.01;20.32
69187;BME280;56301;56.864;60.554;2024-02-28T10:16:59;99836.13;;;25.00;20.18
69187;BME280;56301;56.864;60.554;2024-02-28T10:19:21;99835.81;;;25.03;20.86
69187;BME280;56301;56.864;60.554;2024-02-28T10:21:45;99835.94;;;25.02;20.21
69187;BME280;56301;56.864;60.554;2024-02-28T10:24:08;99813.44;;;25.01;20.46
69187;BME280;56301;56.864;60.554;2024-02-28T10:26:41;99826.13;;;25.01;20.31
69187;BME280;56301;56.864;60.554;2024-02-28T10:29:03;99828.72;;;25.02;21.00
69187;BME280;56301;56.864;60.554;2024-02-28T10:31:27;99823.44;;;25.01;20.82
69187;BME280;56301;56.864;60.554;2024-02-28T10:33:50;99819.88;;;25.00;20.72
69187;BME280;56301;56.864;60.554;2024-02-28T10:36:12;99813.63;;;25.00;20.61
69187;BME280;56301;56.864;60.554;2024-02-28T10:38:35;99812.78;;;24.99;20.13
69187;BME280;56301;56.864;60.554;2024-02-28T10:40:58;99814.47;;;25.00;20.38
69187;BME280;56301;56.864;60.554;2024-02-28T10:43:21;99815.63;;;24.97;20.90
69187;BME280;56301;56.864;60.554;2024-02-28T10:45:44;99820.19;;;24.97;20.75
69187;BME280;56301;56.864;60.554;2024-02-28T10:48:07;99814.78;;;24.97;20.65
69187;BME280;56301;56.864;60.554;2024-02-28T10:50:30;99816.47;;;24.98;20.51
69187;BME280;56301;56.864;60.554;2024-02-28T10:52:53;99821.22;;;24.96;20.68
69187;BME280;56301;56.864;60.554;2024-02-28T10:55:26;99825.59;;;24.97;20.61
69187;BME280;56301;56.864;60.554;2024-02-28T10:57:52;99820.38;;;24.95;20.29
69187;BME280;56301;56.864;60.554;2024-02-28T11:00:16;99821.22;;;24.96;20.30
69187;BME280;56301;56.864;60.554;2024-02-28T11:02:39;99818.50;;;24.96;20.63
69187;BME280;56301;56.864;60.554;2024-02-28T11:05:02;99816.81;;;24.95;20.81
69187;BME280;56301;56.864;60.554;2024-02-28T11:07:24;99816.81;;;24.95;20.62
69187;BME280;56301;56.864;60.554;2024-02-28T11:09:47;99820.38;;;24.95;20.78
69187;BME280;56301;56.864;60.554;2024-02-28T11:12:24;99819.53;;;24.95;20.72
69187;BME280;56301;56.864;60.554;2024-02-28T11:14:55;99811.41;;;24.95;20.78
69187;BME280;56301;56.864;60.554;2024-02-28T11:17:17;99807.69;;;24.96;20.53
69187;BME280;56301;56.864;60.554;2024-02-28T11:19:48;99814.25;;;24.93;20.39
69187;BME280;56301;56.864;60.554;2024-02-28T11:22:11;99824.94;;;24.95;20.85
69187;BME280;56301;56.864;60.554;2024-02-28T11:24:33;99835.59;;;24.96;20.54
69187;BME280;56301;56.864;60.554;2024-02-28T11:26:57;99829.47;;;24.94;20.73
69187;BME280;56301;56.864;60.554;2024-02-28T11:29:26;99831.34;;;24.94;20.58
69187;BME280;56301;56.864;60.554;2024-02-28T11:31:49;99845.72;;;24.94;20.71
69187;BME280;56301;56.864;60.554;2024-02-28T11:34:12;99842.16;;;24.94;20.76
69187;BME280;56301;56.864;60.554;2024-02-28T11:36:34;99837.59;;;24.94;20.49
69187;BME280;56301;56.864;60.554;2024-02-28T11:38:57;99836.75;;;24.94;20.72
69187;BME280;56301;56.864;60.554;2024-02-28T11:41:26;99817.13;;;24.92;20.67
69187;BME280;56301;56.864;60.554;2024-02-28T11:43:48;99828.81;;;24.92;20.34
69187;BME280;56301;56.864;60.554;2024-02-28T11:46:11;99824.22;;;24.93;20.35
69187;BME280;56301;56.864;60.554;2024-02-28T11:48:33;99827.66;;;24.95;20.23
69187;BME280;56301;56.864;60.554;2024-02-28T11:50:56;99834.22;;;24.92;20.23
69187;BME280;56301;56.864;60.554;2024-02-28T11:53:18;99842.47;;;24.91;20.15
69187;BME280;56301;56.864;60.554;2024-02-28T11:55:41;99838.78;;;24.92;20.42
69187;BME280;56301;56.864;60.554;2024-02-28T11:58:07;99830.66;;;24.92;20.47
69187;BME280;56301;56.864;60.554;2024-02-28T12:00:29;99815.53;;;24.81;20.54
69187;BME280;56301;56.864;60.554;2024-02-28T12:02:52;99830.66;;;24.92;19.99
69187;BME280;56301;56.864;60.554;2024-02-28T12:05:14;99836.22;;;24.90;20.38
69187;BME280;56301;56.864;60.554;2024-02-28T12:07:37;99829.13;;;24.89;20.34
69187;BME280;56301;56.864;60.554;2024-02-28T12:09:59;99825.41;;;24.90;20.43
69187;BME280;56301;56.864;60.554;2024-02-28T12:12:22;99824.53;;;24.90;20.52
69187;BME280;56301;56.864;60.554;2024-02-28T12:14:45;99822.84;;;24.89;20.35
69187;BME280;56301;56.864;60.554;2024-02-28T12:17:08;99817.44;;;24.89;20.35
69187;BME280;56301;56.864;60.554;2024-02-28T12:19:31;99815.75;;;24.88;20.10
69187;BME280;56301;56.864;60.554;2024-02-28T12:21:53;99813.88;;;24.88;20.44
69187;BME280;56301;56.864;60.554;2024-02-28T12:24:16;99820.16;;;24.89;20.13
69187;BME280;56301;56.864;60.554;2024-02-28T12:26:38;99820.28;;;24.87;20.26